Nosy Be, Madagaskar

08:13 AM EAT am 28. Juni 2017 (GMT +0300)
Nosy Be | | Change Station

Höhe 33 ft 13.32 °S, 48.32 °E | Updated 13 minutes ago

Heiter
Heiter
70 °F
gefühlte 70 °F
N
2
Wind Wechselnd Wind aus Süd-Südwest

Heute
Max. -- | schwach -- °F
--% Regenrisiko
Gestern
Max. -- | schwach -- °F
Precip. -- inch
Druck 30.04 inch
Sichtweite 6.2 Meilen
Wolken Few 2000 ft
Taupunkt 68 °F
Feuchtigkeit 94%
Regen 0.00 inch
Schneehöhe Nicht verfügbar..
6:09 AM 5:29 PM
Erstes Viertel, 22% visible
METAR FMNN 280500Z 21002KT 9999 FEW020 21/20 Q1017
Druck 30.04 inch
Sichtweite 6.2 Meilen
Wolken Few 2000 ft
Taupunkt 68 °F
Feuchtigkeit 94%
Regen 0.00 inch
Schneehöhe Nicht verfügbar..
6:09 AM 5:29 PM
Erstes Viertel, 22% visible
METAR FMNN 280500Z 21002KT 9999 FEW020 21/20 Q1017

Get Severe Weather Alerts

Thanks for signing up!

Be on the lookout for a verification email in your inbox.

You'll start receiving the daily forecast at 6 AM.

×

10-Day Weather Forecast

No radar image for this location.
×

Almanac

Astronomie

Jun. 28, 2017 Aufgang Untergang
Genaue Zeit
Bürgerliche Dämmerung
Nautische Dämmerung
Astronomische Dämmerung
Mond
Länge des sichtbaren Lichts
Tageslänge
Tomorrow will be .
, % of the Moon is Illuminated

Heutige Rekorde

Country Highs Country Lows

Community

WunderPhotos

Category 6

Welcome to Category 6. This is the collective home for Weather Underground's featured writeups by Dr. Jeff Masters (right), Bob Henson (left), Chris Burt, and other regular contributors.

Nearby

Luftqualität

  Luftqualität LQ Index Schadstoff
Not available.

Schneehöhe

Station Depth Höhe

Erdbebenaktivität

Stadt Distance Mag. Time & Date
Minimum magnitude displayed is 2.5.

küstennahe Wassertemperaturen

Ort Temperatur

Stations

Wetterstationen in der Umgebung

Stationsstandort Temp. Windchill Taupunkt Feuchtigkeit Wind Precip. Höhe Aktualisiert Art